首页
METAR-TAF:

METAR-TAF

机场 :

上海浦东国际机场

上海 / 浦东, 中华人民共和国

纬度: 31-07N, 经度: 121-46E, 海拔: 4米

当前天气观测

该预报发布于21分钟前的11:00 UTC
风速14节,风向
温度 18°C
湿度 100%
气压 1010 hPa
能見度: 4000
多云层高于200英尺
小雨, 轻雾

METAR: ZSPD 211100Z 10007MPS 4000 -RA BR BKN002 18/18 Q1010 NOSIG

时间: 19:21 (11:21 UTC)

预报

该预报发布于7小时和53分钟前的03:28 UTC
预报有效从21日的 06点(UTC)到 22日的 06点(UTC)
风速8节,风向东转东南
能見度: 6000
多云层高于700英尺
成为
从 21日的 13点(UTC)到 21日的 15点(UTC)
多云层高于400英尺
成为
从 22日的 01点(UTC)到 22日的 03点(UTC)
多云层高于600英尺

TAF: ZSPD 210328Z 2106/2206 12004MPS 6000 BKN007 TX23/2106Z TN17/2121Z BECMG 2113/2115 BKN004 BECMG 2201/2203 BKN006

超过4000个机场的气象观测和天气预报(METAR&TAF报告)。

可查询的气象台以黄色和红色小点在地图上表示。

将鼠标移到小点上方,可查看气象台名称。

然后点击查看天气观测和预报。

如需切换地图:点击带黑十字的绿色按钮放大地图;点击带横线的绿色按钮缩小地图;或者点击绿色箭头查看邻近地区的地图。


METAR-TAF: